Weather at Dala Airport

Public forecast

Using degrees Celsius for public forecast. Weather courtesy of forecast.io.

Current aviation weather report (METAR) for Dala Airport

2024/05/26 14:20 (retrieved 26 minutes ago)

ESSD 261420Z 13010KT 070V160 9999 FEW046 24/12 Q1023

Closest aviation forecast (TAF) to Dala Airport

Closest forecast is Stockholm-Arlanda Airport, 86.0 nm (159.3 km) ESE.

2024/05/26 15:00 (retrieved 0 seconds ago)

TAF ESSA 261430Z 2615/2715 13008KT CAVOK